sensor_id;sensor_type;location;lat;lon;timestamp;P1;durP1;ratioP1;P2;durP2;ratioP2
1545;SDS011;766;51.502;9.752;2022-10-31T00:01:31;7.40;;;3.88;;
1545;SDS011;766;51.502;9.752;2022-10-31T00:04:02;9.30;;;4.38;;
1545;SDS011;766;51.502;9.752;2022-10-31T00:06:31;9.23;;;4.70;;
1545;SDS011;766;51.502;9.752;2022-10-31T00:09:00;18.35;;;4.20;;
1545;SDS011;766;51.502;9.752;2022-10-31T00:11:30;10.25;;;4.05;;
1545;SDS011;766;51.502;9.752;2022-10-31T00:13:59;12.88;;;4.55;;
1545;SDS011;766;51.502;9.752;2022-10-31T00:16:29;11.25;;;4.32;;
1545;SDS011;766;51.502;9.752;2022-10-31T00:18:59;12.65;;;4.53;;
1545;SDS011;766;51.502;9.752;2022-10-31T00:21:28;7.40;;;4.43;;
1545;SDS011;766;51.502;9.752;2022-10-31T00:23:58;8.05;;;4.18;;
1545;SDS011;766;51.502;9.752;2022-10-31T00:26:28;10.38;;;4.07;;
1545;SDS011;766;51.502;9.752;2022-10-31T00:28:58;19.00;;;5.07;;
1545;SDS011;766;51.502;9.752;2022-10-31T00:31:28;8.60;;;4.07;;
1545;SDS011;766;51.502;9.752;2022-10-31T00:33:57;14.13;;;4.93;;
1545;SDS011;766;51.502;9.752;2022-10-31T00:36:26;10.27;;;4.18;;
1545;SDS011;766;51.502;9.752;2022-10-31T00:38:54;15.90;;;5.53;;
1545;SDS011;766;51.502;9.752;2022-10-31T00:41:23;11.25;;;4.80;;
1545;SDS011;766;51.502;9.752;2022-10-31T00:43:51;12.07;;;4.80;;
1545;SDS011;766;51.502;9.752;2022-10-31T00:46:20;9.70;;;4.70;;
1545;SDS011;766;51.502;9.752;2022-10-31T00:48:50;11.18;;;4.68;;
1545;SDS011;766;51.502;9.752;2022-10-31T00:51:18;12.38;;;4.10;;
1545;SDS011;766;51.502;9.752;2022-10-31T00:53:47;11.30;;;5.65;;
1545;SDS011;766;51.502;9.752;2022-10-31T00:56:16;10.35;;;4.95;;
1545;SDS011;766;51.502;9.752;2022-10-31T00:58:44;12.75;;;4.20;;
1545;SDS011;766;51.502;9.752;2022-10-31T01:01:12;8.88;;;4.45;;
1545;SDS011;766;51.502;9.752;2022-10-31T01:03:42;9.35;;;4.20;;
1545;SDS011;766;51.502;9.752;2022-10-31T01:06:12;9.75;;;4.45;;
1545;SDS011;766;51.502;9.752;2022-10-31T01:08:41;10.75;;;4.18;;
1545;SDS011;766;51.502;9.752;2022-10-31T01:11:10;13.65;;;4.32;;
1545;SDS011;766;51.502;9.752;2022-10-31T01:13:40;14.35;;;5.10;;
1545;SDS011;766;51.502;9.752;2022-10-31T01:16:10;13.07;;;4.95;;
1545;SDS011;766;51.502;9.752;2022-10-31T01:18:40;12.95;;;5.25;;
1545;SDS011;766;51.502;9.752;2022-10-31T01:21:10;10.25;;;4.70;;
1545;SDS011;766;51.502;9.752;2022-10-31T01:23:41;12.57;;;4.43;;
1545;SDS011;766;51.502;9.752;2022-10-31T01:26:11;16.23;;;5.38;;
1545;SDS011;766;51.502;9.752;2022-10-31T01:28:43;10.35;;;4.40;;
1545;SDS011;766;51.502;9.752;2022-10-31T01:31:14;14.75;;;4.90;;
1545;SDS011;766;51.502;9.752;2022-10-31T01:33:44;10.93;;;4.30;;
1545;SDS011;766;51.502;9.752;2022-10-31T01:36:16;9.50;;;4.05;;
1545;SDS011;766;51.502;9.752;2022-10-31T01:38:46;12.70;;;4.70;;
1545;SDS011;766;51.502;9.752;2022-10-31T01:41:16;12.43;;;4.85;;
1545;SDS011;766;51.502;9.752;2022-10-31T01:43:47;12.05;;;4.75;;
1545;SDS011;766;51.502;9.752;2022-10-31T01:46:19;17.42;;;4.72;;
1545;SDS011;766;51.502;9.752;2022-10-31T01:48:52;10.63;;;4.32;;
1545;SDS011;766;51.502;9.752;2022-10-31T01:51:25;10.90;;;4.15;;
1545;SDS011;766;51.502;9.752;2022-10-31T01:53:57;10.32;;;4.43;;
1545;SDS011;766;51.502;9.752;2022-10-31T01:56:28;9.82;;;4.47;;
1545;SDS011;766;51.502;9.752;2022-10-31T01:58:56;13.13;;;4.50;;
1545;SDS011;766;51.502;9.752;2022-10-31T02:01:31;10.30;;;4.18;;
1545;SDS011;766;51.502;9.752;2022-10-31T02:03:59;11.23;;;4.15;;
1545;SDS011;766;51.502;9.752;2022-10-31T02:06:30;9.75;;;4.32;;
1545;SDS011;766;51.502;9.752;2022-10-31T02:09:04;8.30;;;4.18;;
1545;SDS011;766;51.502;9.752;2022-10-31T02:11:34;6.00;;;3.72;;
1545;SDS011;766;51.502;9.752;2022-10-31T02:14:03;15.50;;;4.85;;
1545;SDS011;766;51.502;9.752;2022-10-31T02:16:31;11.27;;;4.40;;
1545;SDS011;766;51.502;9.752;2022-10-31T02:19:00;11.73;;;3.88;;
1545;SDS011;766;51.502;9.752;2022-10-31T02:21:30;10.18;;;4.53;;
1545;SDS011;766;51.502;9.752;2022-10-31T02:27:32;8.75;;;4.22;;
1545;SDS011;766;51.502;9.752;2022-10-31T02:30:24;10.38;;;5.13;;
1545;SDS011;766;51.502;9.752;2022-10-31T02:33:02;11.60;;;4.28;;
1545;SDS011;766;51.502;9.752;2022-10-31T02:35:46;10.48;;;4.72;;
1545;SDS011;766;51.502;9.752;2022-10-31T02:38:24;13.20;;;5.63;;
1545;SDS011;766;51.502;9.752;2022-10-31T02:41:00;13.43;;;5.65;;
1545;SDS011;766;51.502;9.752;2022-10-31T02:43:35;9.90;;;4.50;;
1545;SDS011;766;51.502;9.752;2022-10-31T02:46:12;13.57;;;5.32;;
1545;SDS011;766;51.502;9.752;2022-10-31T02:48:47;14.07;;;5.75;;
1545;SDS011;766;51.502;9.752;2022-10-31T02:51:19;14.52;;;6.25;;
1545;SDS011;766;51.502;9.752;2022-10-31T02:53:48;23.23;;;6.80;;
1545;SDS011;766;51.502;9.752;2022-10-31T02:56:17;11.27;;;6.75;;
1545;SDS011;766;51.502;9.752;2022-10-31T02:58:47;14.93;;;7.55;;
1545;SDS011;766;51.502;9.752;2022-10-31T03:04:28;15.65;;;8.18;;
1545;SDS011;766;51.502;9.752;2022-10-31T03:07:10;16.10;;;7.90;;
1545;SDS011;766;51.502;9.752;2022-10-31T03:09:50;19.98;;;8.30;;
1545;SDS011;766;51.502;9.752;2022-10-31T03:12:25;20.02;;;9.07;;
1545;SDS011;766;51.502;9.752;2022-10-31T03:14:58;21.30;;;11.50;;
1545;SDS011;766;51.502;9.752;2022-10-31T03:17:37;20.33;;;11.00;;
1545;SDS011;766;51.502;9.752;2022-10-31T03:20:17;20.50;;;12.27;;
1545;SDS011;766;51.502;9.752;2022-10-31T03:22:50;26.45;;;12.18;;
1545;SDS011;766;51.502;9.752;2022-10-31T03:25:20;22.90;;;11.43;;
1545;SDS011;766;51.502;9.752;2022-10-31T03:27:48;25.17;;;12.95;;
1545;SDS011;766;51.502;9.752;2022-10-31T03:30:21;24.83;;;12.95;;
1545;SDS011;766;51.502;9.752;2022-10-31T03:32:50;29.83;;;14.23;;
1545;SDS011;766;51.502;9.752;2022-10-31T03:35:22;28.38;;;13.30;;
1545;SDS011;766;51.502;9.752;2022-10-31T03:38:00;25.15;;;11.88;;
1545;SDS011;766;51.502;9.752;2022-10-31T03:40:33;19.80;;;10.20;;
1545;SDS011;766;51.502;9.752;2022-10-31T03:43:05;21.02;;;9.90;;
1545;SDS011;766;51.502;9.752;2022-10-31T03:45:39;24.92;;;9.43;;
1545;SDS011;766;51.502;9.752;2022-10-31T03:48:11;20.70;;;9.70;;
1545;SDS011;766;51.502;9.752;2022-10-31T03:50:44;19.73;;;8.57;;
1545;SDS011;766;51.502;9.752;2022-10-31T03:53:20;17.20;;;9.23;;
1545;SDS011;766;51.502;9.752;2022-10-31T03:55:55;18.10;;;9.73;;
1545;SDS011;766;51.502;9.752;2022-10-31T03:58:29;21.00;;;10.50;;
1545;SDS011;766;51.502;9.752;2022-10-31T04:01:04;22.25;;;11.15;;
1545;SDS011;766;51.502;9.752;2022-10-31T04:03:35;29.05;;;13.77;;
1545;SDS011;766;51.502;9.752;2022-10-31T04:06:07;26.20;;;13.57;;
1545;SDS011;766;51.502;9.752;2022-10-31T04:08:39;29.63;;;14.48;;
1545;SDS011;766;51.502;9.752;2022-10-31T04:11:10;30.08;;;14.82;;
1545;SDS011;766;51.502;9.752;2022-10-31T04:13:41;30.30;;;14.63;;
1545;SDS011;766;51.502;9.752;2022-10-31T04:16:11;29.88;;;14.30;;
1545;SDS011;766;51.502;9.752;2022-10-31T04:18:43;31.45;;;15.43;;
1545;SDS011;766;51.502;9.752;2022-10-31T04:21:13;33.22;;;15.00;;
1545;SDS011;766;51.502;9.752;2022-10-31T04:23:42;26.90;;;14.98;;
1545;SDS011;766;51.502;9.752;2022-10-31T04:26:12;29.73;;;14.65;;
1545;SDS011;766;51.502;9.752;2022-10-31T04:28:41;27.50;;;14.25;;
1545;SDS011;766;51.502;9.752;2022-10-31T04:31:10;23.50;;;13.50;;
1545;SDS011;766;51.502;9.752;2022-10-31T04:33:39;27.35;;;14.23;;
1545;SDS011;766;51.502;9.752;2022-10-31T04:36:07;27.00;;;14.35;;
1545;SDS011;766;51.502;9.752;2022-10-31T04:38:37;28.70;;;15.07;;
1545;SDS011;766;51.502;9.752;2022-10-31T04:41:05;32.85;;;15.57;;
1545;SDS011;766;51.502;9.752;2022-10-31T04:43:34;29.90;;;15.02;;
1545;SDS011;766;51.502;9.752;2022-10-31T04:46:02;31.40;;;17.75;;
1545;SDS011;766;51.502;9.752;2022-10-31T04:48:42;34.67;;;17.23;;
1545;SDS011;766;51.502;9.752;2022-10-31T04:51:20;33.97;;;16.63;;
1545;SDS011;766;51.502;9.752;2022-10-31T04:53:52;32.67;;;16.48;;
1545;SDS011;766;51.502;9.752;2022-10-31T04:56:20;37.42;;;16.85;;
1545;SDS011;766;51.502;9.752;2022-10-31T04:58:49;35.75;;;18.17;;
1545;SDS011;766;51.502;9.752;2022-10-31T05:01:18;31.83;;;16.83;;
1545;SDS011;766;51.502;9.752;2022-10-31T05:03:46;28.63;;;15.52;;
1545;SDS011;766;51.502;9.752;2022-10-31T05:06:15;27.83;;;14.63;;
1545;SDS011;766;51.502;9.752;2022-10-31T05:08:44;33.03;;;14.70;;
1545;SDS011;766;51.502;9.752;2022-10-31T05:11:14;30.58;;;15.38;;
1545;SDS011;766;51.502;9.752;2022-10-31T05:13:42;29.17;;;14.73;;
1545;SDS011;766;51.502;9.752;2022-10-31T05:16:12;32.03;;;15.15;;
1545;SDS011;766;51.502;9.752;2022-10-31T05:18:40;29.60;;;14.60;;
1545;SDS011;766;51.502;9.752;2022-10-31T05:21:08;26.27;;;14.00;;
1545;SDS011;766;51.502;9.752;2022-10-31T05:23:37;26.20;;;13.43;;
1545;SDS011;766;51.502;9.752;2022-10-31T05:26:14;23.27;;;12.45;;
1545;SDS011;766;51.502;9.752;2022-10-31T05:28:44;29.08;;;13.85;;
1545;SDS011;766;51.502;9.752;2022-10-31T05:31:15;29.50;;;15.25;;
1545;SDS011;766;51.502;9.752;2022-10-31T05:33:43;26.08;;;14.13;;
1545;SDS011;766;51.502;9.752;2022-10-31T05:36:12;27.52;;;14.00;;
1545;SDS011;766;51.502;9.752;2022-10-31T05:38:43;33.63;;;14.30;;
1545;SDS011;766;51.502;9.752;2022-10-31T05:41:12;23.60;;;13.30;;
1545;SDS011;766;51.502;9.752;2022-10-31T05:43:43;28.80;;;14.32;;
1545;SDS011;766;51.502;9.752;2022-10-31T05:46:12;23.45;;;13.48;;
1545;SDS011;766;51.502;9.752;2022-10-31T05:48:41;27.50;;;14.55;;
1545;SDS011;766;51.502;9.752;2022-10-31T05:51:09;32.78;;;15.10;;
1545;SDS011;766;51.502;9.752;2022-10-31T05:53:37;26.38;;;14.13;;
1545;SDS011;766;51.502;9.752;2022-10-31T05:56:06;24.75;;;13.13;;
1545;SDS011;766;51.502;9.752;2022-10-31T05:58:36;22.60;;;12.65;;
1545;SDS011;766;51.502;9.752;2022-10-31T06:01:05;27.15;;;14.05;;
1545;SDS011;766;51.502;9.752;2022-10-31T06:03:34;34.65;;;16.95;;
1545;SDS011;766;51.502;9.752;2022-10-31T06:06:02;31.85;;;15.02;;
1545;SDS011;766;51.502;9.752;2022-10-31T06:08:31;30.80;;;15.85;;
1545;SDS011;766;51.502;9.752;2022-10-31T06:11:00;32.78;;;15.65;;
1545;SDS011;766;51.502;9.752;2022-10-31T06:13:28;34.50;;;15.75;;
1545;SDS011;766;51.502;9.752;2022-10-31T06:15:59;30.30;;;15.82;;
1545;SDS011;766;51.502;9.752;2022-10-31T06:18:28;29.13;;;14.68;;
1545;SDS011;766;51.502;9.752;2022-10-31T06:20:56;31.05;;;15.70;;
1545;SDS011;766;51.502;9.752;2022-10-31T06:23:25;25.65;;;13.52;;
1545;SDS011;766;51.502;9.752;2022-10-31T06:25:55;30.70;;;15.05;;
1545;SDS011;766;51.502;9.752;2022-10-31T06:28:23;28.42;;;14.63;;
1545;SDS011;766;51.502;9.752;2022-10-31T06:30:53;27.05;;;15.02;;
1545;SDS011;766;51.502;9.752;2022-10-31T06:33:22;34.33;;;16.08;;
1545;SDS011;766;51.502;9.752;2022-10-31T06:35:52;36.97;;;16.25;;
1545;SDS011;766;51.502;9.752;2022-10-31T06:38:21;30.02;;;14.68;;
1545;SDS011;766;51.502;9.752;2022-10-31T06:40:50;37.72;;;18.73;;
1545;SDS011;766;51.502;9.752;2022-10-31T06:43:19;41.72;;;20.52;;
1545;SDS011;766;51.502;9.752;2022-10-31T06:45:49;37.95;;;18.08;;
1545;SDS011;766;51.502;9.752;2022-10-31T06:48:18;46.05;;;20.98;;
1545;SDS011;766;51.502;9.752;2022-10-31T06:50:49;45.08;;;19.10;;
1545;SDS011;766;51.502;9.752;2022-10-31T06:53:24;40.55;;;18.67;;
1545;SDS011;766;51.502;9.752;2022-10-31T06:55:52;43.38;;;20.63;;
1545;SDS011;766;51.502;9.752;2022-10-31T06:58:23;49.42;;;23.08;;
1545;SDS011;766;51.502;9.752;2022-10-31T07:00:52;45.28;;;20.23;;
1545;SDS011;766;51.502;9.752;2022-10-31T07:03:20;42.08;;;21.13;;
1545;SDS011;766;51.502;9.752;2022-10-31T07:05:50;47.30;;;20.90;;
1545;SDS011;766;51.502;9.752;2022-10-31T07:08:18;34.10;;;19.27;;
1545;SDS011;766;51.502;9.752;2022-10-31T07:10:50;36.28;;;17.77;;
1545;SDS011;766;51.502;9.752;2022-10-31T07:13:21;31.90;;;17.40;;
1545;SDS011;766;51.502;9.752;2022-10-31T07:15:52;34.72;;;17.38;;
1545;SDS011;766;51.502;9.752;2022-10-31T07:18:21;32.88;;;16.85;;
1545;SDS011;766;51.502;9.752;2022-10-31T07:20:51;34.97;;;17.60;;
1545;SDS011;766;51.502;9.752;2022-10-31T07:23:20;29.40;;;14.70;;
1545;SDS011;766;51.502;9.752;2022-10-31T07:25:53;23.85;;;14.68;;
1545;SDS011;766;51.502;9.752;2022-10-31T07:28:23;28.77;;;15.30;;
1545;SDS011;766;51.502;9.752;2022-10-31T07:30:52;39.80;;;19.08;;
1545;SDS011;766;51.502;9.752;2022-10-31T07:33:21;39.92;;;19.70;;
1545;SDS011;766;51.502;9.752;2022-10-31T07:35:53;32.22;;;17.75;;
1545;SDS011;766;51.502;9.752;2022-10-31T07:38:22;36.20;;;18.00;;
1545;SDS011;766;51.502;9.752;2022-10-31T07:40:50;39.90;;;19.10;;
1545;SDS011;766;51.502;9.752;2022-10-31T07:43:19;41.13;;;19.20;;
1545;SDS011;766;51.502;9.752;2022-10-31T07:45:51;36.53;;;17.92;;
1545;SDS011;766;51.502;9.752;2022-10-31T07:48:19;35.00;;;18.35;;
1545;SDS011;766;51.502;9.752;2022-10-31T07:50:48;33.20;;;18.60;;
1545;SDS011;766;51.502;9.752;2022-10-31T07:53:19;35.58;;;19.25;;
1545;SDS011;766;51.502;9.752;2022-10-31T07:55:48;37.75;;;20.88;;
1545;SDS011;766;51.502;9.752;2022-10-31T07:58:16;37.03;;;19.63;;
1545;SDS011;766;51.502;9.752;2022-10-31T08:00:46;44.20;;;20.70;;
1545;SDS011;766;51.502;9.752;2022-10-31T08:03:16;39.38;;;19.77;;
1545;SDS011;766;51.502;9.752;2022-10-31T08:05:46;39.30;;;17.90;;
1545;SDS011;766;51.502;9.752;2022-10-31T08:08:14;30.27;;;16.10;;
1545;SDS011;766;51.502;9.752;2022-10-31T08:10:46;30.70;;;16.73;;
1545;SDS011;766;51.502;9.752;2022-10-31T08:13:15;33.47;;;19.02;;
1545;SDS011;766;51.502;9.752;2022-10-31T08:15:43;27.20;;;16.95;;
1545;SDS011;766;51.502;9.752;2022-10-31T08:18:16;28.60;;;14.65;;
1545;SDS011;766;51.502;9.752;2022-10-31T08:20:44;25.85;;;14.93;;
1545;SDS011;766;51.502;9.752;2022-10-31T08:23:16;32.53;;;15.45;;
1545;SDS011;766;51.502;9.752;2022-10-31T08:25:47;30.25;;;16.20;;
1545;SDS011;766;51.502;9.752;2022-10-31T08:28:15;28.35;;;16.85;;
1545;SDS011;766;51.502;9.752;2022-10-31T08:30:44;23.60;;;14.35;;
1545;SDS011;766;51.502;9.752;2022-10-31T08:33:16;21.98;;;13.00;;
1545;SDS011;766;51.502;9.752;2022-10-31T08:35:45;23.30;;;12.90;;
1545;SDS011;766;51.502;9.752;2022-10-31T08:38:14;23.27;;;12.60;;
1545;SDS011;766;51.502;9.752;2022-10-31T08:40:43;19.77;;;11.95;;
1545;SDS011;766;51.502;9.752;2022-10-31T08:43:17;22.77;;;12.60;;
1545;SDS011;766;51.502;9.752;2022-10-31T08:45:47;19.77;;;12.52;;
1545;SDS011;766;51.502;9.752;2022-10-31T08:48:16;23.55;;;12.75;;
1545;SDS011;766;51.502;9.752;2022-10-31T08:50:45;21.02;;;12.52;;
1545;SDS011;766;51.502;9.752;2022-10-31T08:53:14;21.88;;;13.02;;
1545;SDS011;766;51.502;9.752;2022-10-31T08:55:43;25.55;;;13.10;;
1545;SDS011;766;51.502;9.752;2022-10-31T08:58:13;21.48;;;12.43;;
1545;SDS011;766;51.502;9.752;2022-10-31T09:00:44;21.23;;;11.05;;
1545;SDS011;766;51.502;9.752;2022-10-31T09:03:15;24.80;;;12.35;;
1545;SDS011;766;51.502;9.752;2022-10-31T09:05:44;26.55;;;13.98;;
1545;SDS011;766;51.502;9.752;2022-10-31T09:08:13;26.98;;;12.27;;
1545;SDS011;766;51.502;9.752;2022-10-31T09:10:43;29.00;;;14.57;;
1545;SDS011;766;51.502;9.752;2022-10-31T09:13:12;26.13;;;13.35;;
1545;SDS011;766;51.502;9.752;2022-10-31T09:15:42;32.13;;;18.33;;
1545;SDS011;766;51.502;9.752;2022-10-31T09:18:15;39.03;;;20.50;;
1545;SDS011;766;51.502;9.752;2022-10-31T09:20:46;47.20;;;20.95;;
1545;SDS011;766;51.502;9.752;2022-10-31T09:23:15;39.92;;;20.25;;
1545;SDS011;766;51.502;9.752;2022-10-31T09:25:45;38.08;;;21.40;;
1545;SDS011;766;51.502;9.752;2022-10-31T09:28:16;43.53;;;22.27;;
1545;SDS011;766;51.502;9.752;2022-10-31T09:30:48;42.40;;;21.90;;
1545;SDS011;766;51.502;9.752;2022-10-31T09:33:18;44.45;;;21.95;;
1545;SDS011;766;51.502;9.752;2022-10-31T09:35:47;36.45;;;20.08;;
1545;SDS011;766;51.502;9.752;2022-10-31T09:38:16;34.90;;;18.98;;
1545;SDS011;766;51.502;9.752;2022-10-31T09:40:47;33.90;;;18.65;;
1545;SDS011;766;51.502;9.752;2022-10-31T09:43:22;39.33;;;19.25;;
1545;SDS011;766;51.502;9.752;2022-10-31T09:46:01;38.72;;;19.20;;
1545;SDS011;766;51.502;9.752;2022-10-31T09:48:38;38.15;;;21.33;;
1545;SDS011;766;51.502;9.752;2022-10-31T09:51:19;40.72;;;21.85;;
1545;SDS011;766;51.502;9.752;2022-10-31T09:53:52;45.72;;;24.25;;
1545;SDS011;766;51.502;9.752;2022-10-31T09:56:26;43.45;;;23.13;;
1545;SDS011;766;51.502;9.752;2022-10-31T09:58:58;44.75;;;21.30;;
1545;SDS011;766;51.502;9.752;2022-10-31T10:01:35;36.05;;;20.30;;
1545;SDS011;766;51.502;9.752;2022-10-31T10:04:16;34.72;;;18.88;;
1545;SDS011;766;51.502;9.752;2022-10-31T10:06:55;33.15;;;19.02;;
1545;SDS011;766;51.502;9.752;2022-10-31T10:09:26;37.78;;;19.10;;
1545;SDS011;766;51.502;9.752;2022-10-31T10:11:58;38.53;;;19.65;;
1545;SDS011;766;51.502;9.752;2022-10-31T10:14:40;33.95;;;17.67;;
1545;SDS011;766;51.502;9.752;2022-10-31T10:17:28;33.63;;;17.77;;
1545;SDS011;766;51.502;9.752;2022-10-31T10:20:18;31.80;;;17.27;;
1545;SDS011;766;51.502;9.752;2022-10-31T10:22:57;25.98;;;15.02;;
1545;SDS011;766;51.502;9.752;2022-10-31T10:25:37;30.67;;;16.67;;
1545;SDS011;766;51.502;9.752;2022-10-31T10:28:10;28.73;;;16.45;;
1545;SDS011;766;51.502;9.752;2022-10-31T10:30:47;26.38;;;13.88;;
1545;SDS011;766;51.502;9.752;2022-10-31T10:33:20;24.98;;;14.15;;
1545;SDS011;766;51.502;9.752;2022-10-31T10:35:55;29.83;;;15.32;;
1545;SDS011;766;51.502;9.752;2022-10-31T10:38:27;26.50;;;15.20;;
1545;SDS011;766;51.502;9.752;2022-10-31T10:40:59;24.92;;;14.90;;
1545;SDS011;766;51.502;9.752;2022-10-31T10:43:31;31.50;;;16.25;;
1545;SDS011;766;51.502;9.752;2022-10-31T10:46:11;29.75;;;15.07;;
1545;SDS011;766;51.502;9.752;2022-10-31T10:49:06;25.60;;;14.73;;
1545;SDS011;766;51.502;9.752;2022-10-31T10:51:44;21.02;;;12.27;;
1545;SDS011;766;51.502;9.752;2022-10-31T10:54:39;22.15;;;13.32;;
1545;SDS011;766;51.502;9.752;2022-10-31T10:57:21;24.48;;;13.75;;
1545;SDS011;766;51.502;9.752;2022-10-31T10:59:55;23.55;;;13.73;;
1545;SDS011;766;51.502;9.752;2022-10-31T11:02:25;21.98;;;12.00;;
1545;SDS011;766;51.502;9.752;2022-10-31T11:04:56;21.70;;;10.93;;
1545;SDS011;766;51.502;9.752;2022-10-31T11:07:36;22.63;;;12.80;;
1545;SDS011;766;51.502;9.752;2022-10-31T11:10:11;25.10;;;12.57;;
1545;SDS011;766;51.502;9.752;2022-10-31T11:12:42;22.70;;;10.68;;
1545;SDS011;766;51.502;9.752;2022-10-31T11:15:18;25.08;;;10.88;;
1545;SDS011;766;51.502;9.752;2022-10-31T11:17:49;20.38;;;11.25;;
1545;SDS011;766;51.502;9.752;2022-10-31T11:20:28;24.75;;;13.00;;
1545;SDS011;766;51.502;9.752;2022-10-31T11:23:15;23.58;;;13.05;;
1545;SDS011;766;51.502;9.752;2022-10-31T11:25:49;27.95;;;13.70;;
1545;SDS011;766;51.502;9.752;2022-10-31T11:28:22;22.70;;;12.55;;
1545;SDS011;766;51.502;9.752;2022-10-31T11:30:52;23.05;;;12.82;;
1545;SDS011;766;51.502;9.752;2022-10-31T11:33:25;23.33;;;13.80;;
1545;SDS011;766;51.502;9.752;2022-10-31T11:35:59;19.17;;;12.60;;
1545;SDS011;766;51.502;9.752;2022-10-31T11:38:32;26.70;;;13.45;;
1545;SDS011;766;51.502;9.752;2022-10-31T11:41:09;27.08;;;13.88;;
1545;SDS011;766;51.502;9.752;2022-10-31T11:43:45;25.08;;;13.98;;
1545;SDS011;766;51.502;9.752;2022-10-31T11:46:18;22.98;;;13.05;;
1545;SDS011;766;51.502;9.752;2022-10-31T11:48:50;27.98;;;13.07;;
1545;SDS011;766;51.502;9.752;2022-10-31T11:51:22;23.83;;;11.85;;
1545;SDS011;766;51.502;9.752;2022-10-31T11:53:54;22.42;;;12.80;;
1545;SDS011;766;51.502;9.752;2022-10-31T11:56:37;24.05;;;11.88;;
1545;SDS011;766;51.502;9.752;2022-10-31T11:59:15;21.83;;;12.02;;
1545;SDS011;766;51.502;9.752;2022-10-31T12:01:47;25.00;;;12.77;;
1545;SDS011;766;51.502;9.752;2022-10-31T12:04:17;18.40;;;12.40;;
1545;SDS011;766;51.502;9.752;2022-10-31T12:06:48;25.25;;;13.40;;
1545;SDS011;766;51.502;9.752;2022-10-31T12:09:19;21.58;;;12.57;;
1545;SDS011;766;51.502;9.752;2022-10-31T12:11:52;26.02;;;12.65;;
1545;SDS011;766;51.502;9.752;2022-10-31T12:14:44;23.83;;;13.20;;
1545;SDS011;766;51.502;9.752;2022-10-31T12:17:21;25.05;;;12.60;;
1545;SDS011;766;51.502;9.752;2022-10-31T12:20:00;24.63;;;13.10;;
1545;SDS011;766;51.502;9.752;2022-10-31T12:22:39;23.63;;;13.48;;
1545;SDS011;766;51.502;9.752;2022-10-31T12:25:19;27.65;;;12.85;;
1545;SDS011;766;51.502;9.752;2022-10-31T12:28:00;24.85;;;14.13;;
1545;SDS011;766;51.502;9.752;2022-10-31T12:30:43;21.67;;;13.30;;
1545;SDS011;766;51.502;9.752;2022-10-31T12:33:38;21.50;;;12.55;;
1545;SDS011;766;51.502;9.752;2022-10-31T12:36:21;20.85;;;12.35;;
1545;SDS011;766;51.502;9.752;2022-10-31T12:39:05;29.15;;;13.60;;
1545;SDS011;766;51.502;9.752;2022-10-31T12:41:45;24.45;;;13.70;;
1545;SDS011;766;51.502;9.752;2022-10-31T12:44:29;32.42;;;14.52;;
1545;SDS011;766;51.502;9.752;2022-10-31T12:47:13;25.38;;;14.20;;
1545;SDS011;766;51.502;9.752;2022-10-31T12:49:59;22.88;;;13.52;;
1545;SDS011;766;51.502;9.752;2022-10-31T12:52:44;27.60;;;14.32;;
1545;SDS011;766;51.502;9.752;2022-10-31T12:55:35;26.27;;;14.15;;
1545;SDS011;766;51.502;9.752;2022-10-31T12:58:14;25.15;;;13.63;;
1545;SDS011;766;51.502;9.752;2022-10-31T13:00:48;21.80;;;12.77;;
1545;SDS011;766;51.502;9.752;2022-10-31T13:03:25;22.23;;;14.35;;
1545;SDS011;766;51.502;9.752;2022-10-31T13:05:57;28.67;;;15.75;;
1545;SDS011;766;51.502;9.752;2022-10-31T13:08:33;25.13;;;14.95;;
1545;SDS011;766;51.502;9.752;2022-10-31T13:11:10;30.30;;;16.20;;
1545;SDS011;766;51.502;9.752;2022-10-31T13:13:42;27.27;;;15.65;;
1545;SDS011;766;51.502;9.752;2022-10-31T13:16:17;32.55;;;17.13;;
1545;SDS011;766;51.502;9.752;2022-10-31T13:18:50;33.92;;;18.25;;
1545;SDS011;766;51.502;9.752;2022-10-31T13:21:23;35.03;;;16.85;;
1545;SDS011;766;51.502;9.752;2022-10-31T13:23:54;25.30;;;16.55;;
1545;SDS011;766;51.502;9.752;2022-10-31T13:26:34;30.50;;;15.85;;
1545;SDS011;766;51.502;9.752;2022-10-31T13:29:11;30.30;;;17.48;;
1545;SDS011;766;51.502;9.752;2022-10-31T13:31:44;29.73;;;16.50;;
1545;SDS011;766;51.502;9.752;2022-10-31T13:34:18;31.75;;;17.33;;
1545;SDS011;766;51.502;9.752;2022-10-31T13:36:53;31.75;;;16.38;;
1545;SDS011;766;51.502;9.752;2022-10-31T13:39:30;35.50;;;16.92;;
1545;SDS011;766;51.502;9.752;2022-10-31T13:42:21;34.17;;;17.23;;
1545;SDS011;766;51.502;9.752;2022-10-31T13:45:06;34.85;;;17.77;;
1545;SDS011;766;51.502;9.752;2022-10-31T13:47:40;28.15;;;16.08;;
1545;SDS011;766;51.502;9.752;2022-10-31T13:50:20;34.20;;;15.82;;
1545;SDS011;766;51.502;9.752;2022-10-31T13:52:49;31.38;;;15.82;;
1545;SDS011;766;51.502;9.752;2022-10-31T13:58:24;25.23;;;15.52;;
1545;SDS011;766;51.502;9.752;2022-10-31T14:00:58;29.58;;;15.18;;
1545;SDS011;766;51.502;9.752;2022-10-31T14:03:40;33.28;;;15.15;;
1545;SDS011;766;51.502;9.752;2022-10-31T14:06:39;27.80;;;16.20;;
1545;SDS011;766;51.502;9.752;2022-10-31T14:09:20;33.33;;;16.83;;
1545;SDS011;766;51.502;9.752;2022-10-31T14:11:52;32.70;;;17.83;;
1545;SDS011;766;51.502;9.752;2022-10-31T14:14:26;31.85;;;17.27;;
1545;SDS011;766;51.502;9.752;2022-10-31T14:17:01;31.60;;;16.73;;
1545;SDS011;766;51.502;9.752;2022-10-31T14:19:30;35.90;;;17.75;;
1545;SDS011;766;51.502;9.752;2022-10-31T14:21:59;36.50;;;17.13;;
1545;SDS011;766;51.502;9.752;2022-10-31T14:24:34;32.08;;;17.60;;
1545;SDS011;766;51.502;9.752;2022-10-31T14:32:56;34.08;;;16.63;;
1545;SDS011;766;51.502;9.752;2022-10-31T14:35:34;32.17;;;16.52;;
1545;SDS011;766;51.502;9.752;2022-10-31T14:38:17;31.35;;;16.05;;
1545;SDS011;766;51.502;9.752;2022-10-31T14:44:41;29.02;;;16.25;;
1545;SDS011;766;51.502;9.752;2022-10-31T14:47:24;29.90;;;15.15;;
1545;SDS011;766;51.502;9.752;2022-10-31T14:50:08;25.00;;;15.30;;
1545;SDS011;766;51.502;9.752;2022-10-31T14:52:47;34.30;;;15.88;;
1545;SDS011;766;51.502;9.752;2022-10-31T14:55:22;36.83;;;16.38;;
1545;SDS011;766;51.502;9.752;2022-10-31T14:57:54;30.63;;;16.25;;
1545;SDS011;766;51.502;9.752;2022-10-31T15:00:25;31.38;;;15.57;;
1545;SDS011;766;51.502;9.752;2022-10-31T15:03:02;29.05;;;15.48;;
1545;SDS011;766;51.502;9.752;2022-10-31T15:05:41;24.00;;;14.50;;
1545;SDS011;766;51.502;9.752;2022-10-31T15:08:25;34.35;;;14.60;;
1545;SDS011;766;51.502;9.752;2022-10-31T15:10:57;26.52;;;14.07;;
1545;SDS011;766;51.502;9.752;2022-10-31T15:13:25;25.98;;;13.32;;
1545;SDS011;766;51.502;9.752;2022-10-31T15:15:54;33.42;;;13.70;;
1545;SDS011;766;51.502;9.752;2022-10-31T15:18:26;26.88;;;12.50;;
1545;SDS011;766;51.502;9.752;2022-10-31T15:20:56;23.45;;;12.10;;
1545;SDS011;766;51.502;9.752;2022-10-31T15:23:26;28.05;;;12.73;;
1545;SDS011;766;51.502;9.752;2022-10-31T15:25:59;24.25;;;12.88;;
1545;SDS011;766;51.502;9.752;2022-10-31T15:28:30;21.48;;;12.35;;
1545;SDS011;766;51.502;9.752;2022-10-31T15:31:00;20.98;;;12.75;;
1545;SDS011;766;51.502;9.752;2022-10-31T15:33:38;25.50;;;13.02;;
1545;SDS011;766;51.502;9.752;2022-10-31T15:36:18;26.90;;;12.75;;
1545;SDS011;766;51.502;9.752;2022-10-31T15:38:56;25.98;;;12.40;;
1545;SDS011;766;51.502;9.752;2022-10-31T15:41:27;25.90;;;11.60;;
1545;SDS011;766;51.502;9.752;2022-10-31T15:44:00;30.90;;;12.80;;
1545;SDS011;766;51.502;9.752;2022-10-31T15:46:32;24.23;;;12.00;;
1545;SDS011;766;51.502;9.752;2022-10-31T15:49:03;21.70;;;11.32;;
1545;SDS011;766;51.502;9.752;2022-10-31T15:51:33;24.70;;;12.05;;
1545;SDS011;766;51.502;9.752;2022-10-31T15:54:03;19.80;;;10.98;;
1545;SDS011;766;51.502;9.752;2022-10-31T15:56:32;17.98;;;11.05;;
1545;SDS011;766;51.502;9.752;2022-10-31T15:59:02;23.17;;;11.77;;